Time;durP1;ratioP1;P1;durP2;ratioP2;P2;SDS_P1;SDS_P2;PMS_P1;PMS_P2;Temp;Humidity;BMP_temperature;BMP_pressure;BME280_temperature;BME280_humidity;BME280_pressure;Samples;Min_cycle;Max_cycle;Signal;HPM_P1;HPM_P2
2021/06/16 00:02:11;;;;;;;1.90;1.80;;;11.50;99.90;;;;;;5088738;28;20380;-85
2021/06/16 00:04:38;;;;;;;2.07;1.90;;;11.70;99.90;;;;;;5089152;28;21167;-84
2021/06/16 00:07:05;;;;;;;2.60;1.60;;;11.80;99.90;;;;;;5089410;28;20395;-87
2021/06/16 00:09:32;;;;;;;1.38;1.27;;;12.00;99.90;;;;;;5090203;28;20383;-84
2021/06/16 00:11:59;;;;;;;1.10;0.90;;;12.10;99.90;;;;;;5092728;28;20839;-84
2021/06/16 00:14:28;;;;;;;2.63;1.02;;;12.30;99.90;;;;;;5093299;28;20437;-87
2021/06/16 00:16:55;;;;;;;1.73;1.25;;;12.60;99.90;;;;;;5091981;28;20372;-86
2021/06/16 00:19:22;;;;;;;1.20;1.10;;;13.20;99.90;;;;;;5092326;28;20751;-88
2021/06/16 00:21:49;;;;;;;1.13;0.98;;;14.50;99.90;;;;;;5093036;28;20414;-89
2021/06/16 00:24:19;;;;;;;1.65;1.00;;;15.30;99.90;;;;;;5093146;28;20479;-89
2021/06/16 00:26:48;;;;;;;1.60;0.85;;;15.30;99.90;;;;;;5092254;28;20384;-86
2021/06/16 00:29:17;;;;;;;1.50;0.90;;;14.90;99.90;;;;;;5085977;28;20459;-86
2021/06/16 00:31:44;;;;;;;1.52;1.02;;;14.50;99.90;;;;;;5092509;28;20411;-86
2021/06/16 00:34:12;;;;;;;0.80;0.80;;;14.10;99.90;;;;;;5093642;28;20384;-86
2021/06/16 00:36:39;;;;;;;2.63;1.00;;;13.80;99.90;;;;;;5112977;28;20371;-86
2021/06/16 00:39:07;;;;;;;1.60;0.90;;;13.60;99.90;;;;;;5111969;28;20363;-88
2021/06/16 00:41:34;;;;;;;1.55;0.90;;;13.50;99.90;;;;;;5092451;28;20396;-86
2021/06/16 00:44:01;;;;;;;1.30;1.10;;;13.40;99.90;;;;;;5112604;28;20390;-88
2021/06/16 00:46:28;;;;;;;2.80;1.20;;;13.30;99.90;;;;;;5113154;28;20363;-86
2021/06/16 00:48:55;;;;;;;1.20;0.95;;;13.30;99.90;;;;;;5096694;28;20392;-86
2021/06/16 00:51:22;;;;;;;1.20;1.03;;;13.40;99.90;;;;;;5092177;28;20376;-85
2021/06/16 00:53:49;;;;;;;1.70;1.10;;;13.40;99.90;;;;;;5092390;28;21071;-86
2021/06/16 00:56:17;;;;;;;3.40;1.50;;;13.50;99.90;;;;;;5089371;28;20379;-87
2021/06/16 00:58:45;;;;;;;1.02;0.93;;;13.50;99.90;;;;;;5092726;28;20900;-88
2021/06/16 01:01:26;;;;;;;1.10;1.00;;;13.50;99.90;;;;;;5092370;28;20388;-85
2021/06/16 01:04:25;;;;;;;0.88;0.80;;;13.50;99.90;;;;;;5091631;28;20420;-85
2021/06/16 01:06:58;;;;;;;1.83;1.10;;;13.60;99.90;;;;;;5085006;28;20376;-85
2021/06/16 01:09:58;;;;;;;2.00;1.10;;;13.70;99.90;;;;;;5092159;28;20455;-85
2021/06/16 01:12:32;;;;;;;1.65;1.30;;;13.80;99.90;;;;;;5092024;28;20456;-85
2021/06/16 01:15:10;;;;;;;2.07;1.27;;;13.80;99.90;;;;;;5091868;28;20406;-86
2021/06/16 01:17:50;;;;;;;3.20;1.30;;;14.00;99.90;;;;;;5090538;28;20381;-84
2021/06/16 01:20:34;;;;;;;1.90;1.27;;;14.10;99.90;;;;;;5091967;28;20396;-87
2021/06/16 01:23:34;;;;;;;2.43;1.33;;;14.20;99.90;;;;;;5090696;28;20469;-83
2021/06/16 01:26:01;;;;;;;1.98;1.30;;;14.40;99.90;;;;;;5092316;28;20742;-84
2021/06/16 01:28:41;;;;;;;2.40;1.48;;;14.40;99.90;;;;;;5092140;28;20364;-85
2021/06/16 01:31:11;;;;;;;3.40;1.38;;;14.40;99.90;;;;;;5091599;28;20368;-84
2021/06/16 01:33:38;;;;;;;2.92;1.40;;;14.50;99.90;;;;;;5091589;28;20399;-84
2021/06/16 01:36:07;;;;;;;3.47;1.40;;;14.60;99.90;;;;;;5091824;28;20529;-84
2021/06/16 01:38:35;;;;;;;2.20;1.70;;;14.50;99.90;;;;;;5091965;28;21112;-88
2021/06/16 01:41:04;;;;;;;2.45;1.30;;;14.60;99.90;;;;;;5091807;28;20392;-84
2021/06/16 01:43:31;;;;;;;2.03;1.40;;;14.60;99.90;;;;;;5092176;28;20915;-86
2021/06/16 01:46:01;;;;;;;4.65;2.10;;;14.80;99.90;;;;;;5092155;28;20422;-89
2021/06/16 01:48:30;;;;;;;3.13;1.70;;;14.80;99.90;;;;;;5093393;28;20372;-86
2021/06/16 01:50:58;;;;;;;2.85;1.25;;;14.90;99.90;;;;;;5092646;28;20372;-85
2021/06/16 01:53:25;;;;;;;1.88;1.25;;;15.00;99.90;;;;;;5091773;28;20874;-84
2021/06/16 01:55:53;;;;;;;1.58;1.30;;;15.00;99.90;;;;;;5091242;28;20795;-85
2021/06/16 01:58:20;;;;;;;1.98;1.30;;;15.00;99.90;;;;;;5091563;28;20365;-87
2021/06/16 02:00:50;;;;;;;1.80;1.10;;;15.00;99.90;;;;;;5092719;28;20846;-88
2021/06/16 02:03:17;;;;;;;4.70;1.25;;;15.00;99.90;;;;;;5091719;28;20404;-85
2021/06/16 02:05:44;;;;;;;2.08;1.08;;;15.20;99.90;;;;;;5091470;28;20374;-91
2021/06/16 02:08:20;;;;;;;2.33;0.95;;;15.20;99.90;;;;;;5092048;28;20403;-90
2021/06/16 02:10:52;;;;;;;1.27;0.80;;;15.30;99.90;;;;;;5091388;28;20391;-89
2021/06/16 02:13:40;;;;;;;0.70;0.60;;;15.30;99.90;;;;;;5091790;28;20376;-85
2021/06/16 02:16:17;;;;;;;0.77;0.70;;;15.40;99.90;;;;;;5094385;28;20376;-87
2021/06/16 02:18:47;;;;;;;2.70;0.80;;;15.50;99.90;;;;;;5092316;28;20391;-87
2021/06/16 02:21:15;;;;;;;1.20;0.75;;;15.50;99.90;;;;;;5097632;28;20372;-90
2021/06/16 02:23:43;;;;;;;1.00;0.50;;;15.50;99.90;;;;;;5093151;28;20428;-86
2021/06/16 02:26:14;;;;;;;1.65;0.50;;;15.50;99.90;;;;;;5090381;28;20778;-85
2021/06/16 02:28:42;;;;;;;1.00;0.60;;;15.60;99.90;;;;;;5091534;28;20392;-90
2021/06/16 02:31:10;;;;;;;1.48;0.70;;;15.60;99.90;;;;;;5093100;28;20395;-89
2021/06/16 02:33:37;;;;;;;1.02;0.70;;;15.80;99.90;;;;;;5072178;28;20393;-90
2021/06/16 02:36:07;;;;;;;2.40;0.70;;;15.90;99.90;;;;;;5081318;28;20384;-90
2021/06/16 02:38:36;;;;;;;0.38;0.30;;;15.90;99.90;;;;;;5092398;28;20377;-89
2021/06/16 02:41:07;;;;;;;0.77;0.35;;;16.00;99.90;;;;;;5093994;28;20453;-89
2021/06/16 02:43:36;;;;;;;1.05;0.55;;;16.10;99.90;;;;;;5086264;28;21033;-90
2021/06/16 02:46:03;;;;;;;0.50;0.40;;;16.20;99.90;;;;;;5072230;28;20417;-93
2021/06/16 02:48:30;;;;;;;1.40;0.50;;;16.30;99.90;;;;;;5076738;28;20366;-88
2021/06/16 02:50:58;;;;;;;3.65;0.32;;;16.30;99.90;;;;;;5076614;28;20385;-94
2021/06/16 02:53:28;;;;;;;0.90;0.38;;;16.30;99.90;;;;;;5087851;28;20412;-91
2021/06/16 02:56:01;;;;;;;0.95;0.22;;;16.30;99.90;;;;;;5097622;28;20440;-88
2021/06/16 02:58:30;;;;;;;1.25;0.20;;;16.30;99.90;;;;;;5089429;28;20392;-90
2021/06/16 03:01:02;;;;;;;0.75;0.32;;;16.30;99.90;;;;;;5090259;28;20738;-91
2021/06/16 03:03:31;;;;;;;0.50;0.30;;;16.40;99.90;;;;;;5088643;28;20400;-89
2021/06/16 03:06:01;;;;;;;0.50;0.30;;;16.50;99.90;;;;;;5089035;28;20377;-89
2021/06/16 03:08:29;;;;;;;1.17;0.30;;;16.60;99.90;;;;;;5089921;28;20376;-89
2021/06/16 03:10:59;;;;;;;0.70;0.40;;;16.60;99.90;;;;;;5090534;28;20376;-91
2021/06/16 03:13:28;;;;;;;1.00;0.30;;;16.50;99.90;;;;;;5069583;28;20921;-92
2021/06/16 03:15:57;;;;;;;1.20;0.20;;;16.50;99.90;;;;;;5080636;28;20781;-90
2021/06/16 03:18:24;;;;;;;0.35;0.20;;;16.50;99.90;;;;;;5090846;28;20381;-93
2021/06/16 03:20:56;;;;;;;1.15;0.50;;;16.60;99.90;;;;;;5090516;28;20380;-89
2021/06/16 03:23:25;;;;;;;2.05;0.32;;;16.60;99.90;;;;;;5093058;28;21251;-91
2021/06/16 03:25:54;;;;;;;1.90;0.47;;;16.70;99.90;;;;;;5090459;28;20384;-91
2021/06/16 03:28:24;;;;;;;0.40;0.40;;;16.70;99.90;;;;;;5093326;28;20399;-94
2021/06/16 03:30:55;;;;;;;0.43;0.30;;;16.70;99.90;;;;;;5094263;28;20908;-96
2021/06/16 03:33:22;;;;;;;0.35;0.30;;;16.70;99.90;;;;;;5091518;28;20376;-86
2021/06/16 03:35:50;;;;;;;0.75;0.43;;;16.80;99.90;;;;;;5090515;28;20379;-89
2021/06/16 03:38:17;;;;;;;1.45;0.50;;;17.00;99.90;;;;;;5090811;28;20367;-86
2021/06/16 03:40:49;;;;;;;1.20;0.50;;;17.00;99.90;;;;;;5089803;28;20751;-88
2021/06/16 03:43:18;;;;;;;1.17;0.40;;;17.10;99.90;;;;;;5090169;28;20400;-85
2021/06/16 03:45:46;;;;;;;1.30;0.30;;;17.10;99.90;;;;;;5102515;28;20371;-92
2021/06/16 03:48:18;;;;;;;0.65;0.40;;;17.10;99.90;;;;;;5111245;28;20585;-92
2021/06/16 03:50:45;;;;;;;1.02;0.60;;;17.00;99.90;;;;;;5110023;28;20846;-88
2021/06/16 03:53:13;;;;;;;1.33;0.43;;;17.00;99.90;;;;;;5113077;28;20443;-88
2021/06/16 03:55:45;;;;;;;0.65;0.20;;;17.00;99.90;;;;;;5104443;28;21102;-87
2021/06/16 03:58:14;;;;;;;2.97;0.63;;;17.00;99.90;;;;;;5086949;28;20910;-86
2021/06/16 04:00:42;;;;;;;1.80;0.30;;;17.00;99.90;;;;;;5090884;28;20367;-84
2021/06/16 04:03:10;;;;;;;1.25;0.40;;;17.00;99.90;;;;;;5093578;28;20550;-88
2021/06/16 04:05:37;;;;;;;0.63;0.22;;;17.20;99.90;;;;;;5092031;28;20747;-91
2021/06/16 04:08:07;;;;;;;0.70;0.30;;;17.30;99.90;;;;;;5096988;28;20384;-91
2021/06/16 04:10:35;;;;;;;0.60;0.30;;;17.30;99.90;;;;;;5098783;28;20395;-89
2021/06/16 04:13:02;;;;;;;0.70;0.30;;;17.30;99.90;;;;;;5092076;28;20387;-90
2021/06/16 04:15:30;;;;;;;0.30;0.30;;;17.20;99.90;;;;;;5099002;28;20438;-90
2021/06/16 04:18:00;;;;;;;1.60;0.32;;;17.10;99.90;;;;;;5120958;28;20365;-95
2021/06/16 04:20:29;;;;;;;0.45;0.30;;;17.10;99.90;;;;;;5117227;28;20379;-88
2021/06/16 04:22:57;;;;;;;0.70;0.30;;;17.00;99.90;;;;;;5117750;28;20443;-96
2021/06/16 04:25:25;;;;;;;0.68;0.30;;;16.90;99.90;;;;;;5124907;28;20424;-94
2021/06/16 04:27:53;;;;;;;0.60;0.20;;;16.80;99.90;;;;;;5115533;28;20354;-90
2021/06/16 04:30:22;;;;;;;1.27;0.40;;;16.70;99.90;;;;;;5119115;28;20378;-92
2021/06/16 04:32:50;;;;;;;1.60;0.37;;;16.60;99.90;;;;;;5118538;28;20923;-93
2021/06/16 04:35:17;;;;;;;0.35;0.30;;;16.50;99.90;;;;;;5114347;28;20366;-91
2021/06/16 04:37:44;;;;;;;0.88;0.30;;;16.50;99.90;;;;;;5110224;28;20376;-90
2021/06/16 04:40:11;;;;;;;0.50;0.30;;;16.40;99.90;;;;;;5090086;28;20399;-90
2021/06/16 04:42:38;;;;;;;0.30;0.30;;;16.50;99.90;;;;;;5091029;28;20400;-92
2021/06/16 04:45:06;;;;;;;0.57;0.30;;;16.40;99.90;;;;;;5091410;28;20416;-93
2021/06/16 04:47:34;;;;;;;0.88;0.40;;;16.50;99.90;;;;;;5093656;28;20364;-89
2021/06/16 04:50:04;;;;;;;0.80;0.40;;;16.50;99.90;;;;;;5089643;28;20375;-88
2021/06/16 04:52:31;;;;;;;1.00;0.35;;;16.50;99.90;;;;;;5089220;28;20465;-88
2021/06/16 04:54:57;;;;;;;1.70;0.40;;;16.50;99.90;;;;;;5090914;28;20391;-90
2021/06/16 04:57:24;;;;;;;1.05;0.30;;;16.50;99.90;;;;;;5095089;28;20397;-90
2021/06/16 04:59:51;;;;;;;2.00;0.32;;;16.50;99.90;;;;;;5097097;28;20420;-93
2021/06/16 05:02:18;;;;;;;0.90;0.38;;;16.40;99.90;;;;;;5103983;28;20367;-94
2021/06/16 05:04:45;;;;;;;1.23;0.35;;;16.30;99.90;;;;;;5100147;28;20479;-93
2021/06/16 05:07:12;;;;;;;0.65;0.22;;;16.30;99.90;;;;;;5093466;28;20717;-94
2021/06/16 05:09:39;;;;;;;0.93;0.15;;;16.20;99.90;;;;;;5094373;28;21009;-88
2021/06/16 05:12:06;;;;;;;0.98;0.30;;;16.20;99.90;;;;;;5091812;28;20456;-89
2021/06/16 05:14:33;;;;;;;1.70;0.50;;;16.20;99.90;;;;;;5092810;28;20385;-91
2021/06/16 05:17:01;;;;;;;0.90;0.30;;;16.20;99.90;;;;;;5092995;28;20387;-90
2021/06/16 05:19:28;;;;;;;2.00;0.38;;;16.30;99.90;;;;;;5093144;28;20429;-91
2021/06/16 05:21:58;;;;;;;1.20;0.40;;;16.20;99.90;;;;;;5092286;28;20376;-88
2021/06/16 05:24:25;;;;;;;0.80;0.40;;;16.20;99.90;;;;;;5093079;28;20400;-91
2021/06/16 05:26:52;;;;;;;1.27;0.30;;;16.20;99.90;;;;;;5095424;28;20368;-94
2021/06/16 05:29:19;;;;;;;0.40;0.40;;;16.20;99.90;;;;;;5093656;28;20380;-92
2021/06/16 05:31:46;;;;;;;0.98;0.50;;;16.10;99.90;;;;;;5091453;28;20384;-90
2021/06/16 05:34:13;;;;;;;0.80;0.35;;;16.10;99.90;;;;;;5091997;28;20863;-90
2021/06/16 05:36:40;;;;;;;0.88;0.40;;;16.00;99.90;;;;;;5088646;28;20733;-90
2021/06/16 05:39:07;;;;;;;1.67;0.52;;;16.00;99.90;;;;;;5072261;28;20374;-92
2021/06/16 05:41:34;;;;;;;0.43;0.43;;;15.90;99.90;;;;;;5073233;28;20386;-94
2021/06/16 05:44:01;;;;;;;2.10;0.60;;;15.90;99.90;;;;;;5075401;28;20413;-90
2021/06/16 05:46:28;;;;;;;1.47;0.90;;;16.00;99.90;;;;;;5073591;28;20366;-93
2021/06/16 05:48:55;;;;;;;1.85;0.55;;;16.00;99.90;;;;;;5085476;28;20393;-87
2021/06/16 05:51:22;;;;;;;1.85;0.57;;;16.00;99.90;;;;;;5092004;28;20430;-88
2021/06/16 05:53:49;;;;;;;0.38;0.30;;;16.00;99.90;;;;;;5093704;28;20368;-91
2021/06/16 05:56:16;;;;;;;0.63;0.45;;;15.90;99.90;;;;;;5095040;28;20421;-93
2021/06/16 05:58:43;;;;;;;0.40;0.35;;;15.80;99.90;;;;;;5095264;28;20376;-92
2021/06/16 06:01:10;;;;;;;0.80;0.50;;;15.60;99.90;;;;;;5093225;28;20759;-90
2021/06/16 06:03:37;;;;;;;0.60;0.50;;;15.50;99.90;;;;;;5092753;28;20415;-92
2021/06/16 06:06:04;;;;;;;1.13;0.50;;;15.30;99.90;;;;;;5092496;28;20380;-91
2021/06/16 06:08:31;;;;;;;1.20;0.40;;;15.20;99.90;;;;;;5090835;28;20388;-88
2021/06/16 06:10:58;;;;;;;1.20;0.50;;;15.10;99.90;;;;;;5090989;28;20401;-91
2021/06/16 06:13:25;;;;;;;0.50;0.40;;;15.00;99.90;;;;;;5093290;28;21072;-93
2021/06/16 06:15:52;;;;;;;1.70;0.50;;;15.00;99.90;;;;;;5093406;28;20455;-91
2021/06/16 06:18:20;;;;;;;0.90;0.55;;;14.90;99.90;;;;;;5092536;28;20388;-92
2021/06/16 06:20:47;;;;;;;1.50;0.60;;;14.90;99.90;;;;;;5094117;28;20398;-91
2021/06/16 06:23:14;;;;;;;1.30;0.77;;;14.90;99.90;;;;;;5074541;28;20429;-91
2021/06/16 06:25:41;;;;;;;1.05;0.75;;;14.90;99.90;;;;;;5084102;28;20388;-92
2021/06/16 06:28:08;;;;;;;1.15;0.98;;;14.80;99.90;;;;;;5092022;28;20429;-93
2021/06/16 06:30:34;;;;;;;1.00;0.80;;;14.70;99.90;;;;;;5093896;28;20842;-93
2021/06/16 06:33:02;;;;;;;4.17;1.20;;;14.60;99.90;;;;;;5093199;28;20893;-91
2021/06/16 06:35:29;;;;;;;1.60;1.10;;;14.60;99.90;;;;;;5094070;28;20403;-92
2021/06/16 06:37:56;;;;;;;2.28;1.10;;;14.50;99.90;;;;;;5093527;28;20430;-93
2021/06/16 06:40:23;;;;;;;2.83;1.35;;;14.50;99.90;;;;;;5093248;28;20381;-93
2021/06/16 06:42:50;;;;;;;1.52;1.10;;;14.40;99.90;;;;;;5096357;28;20400;-93
2021/06/16 06:45:18;;;;;;;2.65;1.02;;;14.30;99.90;;;;;;5098839;28;20399;-94
2021/06/16 06:47:45;;;;;;;3.60;1.50;;;14.20;99.90;;;;;;5106322;28;20365;-94
2021/06/16 06:50:15;;;;;;;1.42;1.30;;;14.20;99.90;;;;;;5098645;28;20372;-90
2021/06/16 06:52:44;;;;;;;1.77;1.50;;;14.10;99.90;;;;;;5094336;28;20392;-96
2021/06/16 06:55:12;;;;;;;1.20;1.10;;;14.20;99.90;;;;;;5097159;28;20380;-96
2021/06/16 06:57:39;;;;;;;2.97;1.47;;;14.20;99.90;;;;;;5096213;28;20988;-91
2021/06/16 07:00:08;;;;;;;5.57;3.38;;;14.10;99.90;;;;;;5081307;28;20396;-90
2021/06/16 07:02:35;;;;;;;4.20;2.53;;;14.10;99.90;;;;;;5091462;28;20407;-94
2021/06/16 07:05:03;;;;;;;5.45;2.88;;;14.20;99.90;;;;;;5094214;28;20396;-96
2021/06/16 07:07:30;;;;;;;3.33;1.80;;;14.20;99.90;;;;;;5087483;28;20397;-93
2021/06/16 07:09:57;;;;;;;3.88;1.60;;;14.10;99.90;;;;;;5089036;28;20422;-94
2021/06/16 07:12:24;;;;;;;3.10;1.20;;;14.10;99.90;;;;;;5091131;28;20463;-95
2021/06/16 07:14:53;;;;;;;1.65;1.27;;;14.00;99.90;;;;;;5091055;28;20384;-93
2021/06/16 07:17:20;;;;;;;3.92;1.30;;;14.00;99.90;;;;;;5083352;28;20460;-93
2021/06/16 07:19:47;;;;;;;4.43;1.20;;;13.90;99.90;;;;;;5074836;28;20893;-88
2021/06/16 07:22:16;;;;;;;3.80;1.40;;;13.80;99.90;;;;;;5088995;28;20423;-92
2021/06/16 07:24:43;;;;;;;4.23;1.87;;;13.80;99.90;;;;;;5076598;28;20389;-90
2021/06/16 07:27:10;;;;;;;3.10;1.60;;;13.70;99.90;;;;;;5080411;28;20397;-95
2021/06/16 07:29:38;;;;;;;4.93;2.72;;;13.60;99.90;;;;;;5089933;28;20408;-90
2021/06/16 07:32:05;;;;;;;10.05;3.05;;;13.50;99.90;;;;;;5089319;28;20490;-91
2021/06/16 07:34:32;;;;;;;4.60;2.80;;;13.40;99.90;;;;;;5091558;28;20415;-94
2021/06/16 07:36:59;;;;;;;5.65;2.55;;;13.40;99.90;;;;;;5091376;28;21137;-92
2021/06/16 07:39:26;;;;;;;3.00;1.90;;;13.30;99.90;;;;;;5106137;28;20424;-92
2021/06/16 07:41:53;;;;;;;3.40;2.15;;;13.30;99.90;;;;;;5090848;28;20926;-90
2021/06/16 07:44:21;;;;;;;3.70;1.90;;;13.30;99.90;;;;;;5081166;28;20398;-87
2021/06/16 07:46:48;;;;;;;3.47;1.70;;;13.30;99.90;;;;;;5081137;28;20853;-91
2021/06/16 07:49:15;;;;;;;4.95;1.85;;;13.20;99.90;;;;;;5079312;28;20396;-88
2021/06/16 07:51:42;;;;;;;2.58;1.50;;;13.30;99.90;;;;;;5080199;28;20525;-87
2021/06/16 07:54:11;;;;;;;4.55;1.70;;;13.30;99.90;;;;;;5072213;28;20449;-91
2021/06/16 07:56:39;;;;;;;4.82;2.03;;;13.40;99.90;;;;;;5085978;28;20384;-93
2021/06/16 07:59:06;;;;;;;4.18;1.80;;;13.40;99.90;;;;;;5090326;28;20372;-90
2021/06/16 08:01:34;;;;;;;3.03;2.13;;;13.40;99.90;;;;;;5088331;28;20388;-90
2021/06/16 08:04:01;;;;;;;4.35;1.88;;;13.40;99.90;;;;;;5081373;28;20412;-91
2021/06/16 08:06:28;;;;;;;4.03;1.55;;;13.40;99.90;;;;;;5086309;28;20394;-90
2021/06/16 08:08:55;;;;;;;3.13;1.85;;;13.50;99.90;;;;;;5071872;28;20386;-91
2021/06/16 08:11:23;;;;;;;4.18;2.05;;;13.40;99.90;;;;;;5083859;28;20375;-87
2021/06/16 08:13:51;;;;;;;3.30;1.77;;;13.50;99.90;;;;;;5085551;28;20398;-90
2021/06/16 08:16:18;;;;;;;4.28;2.08;;;13.50;99.90;;;;;;5083043;28;20412;-90
2021/06/16 08:18:50;;;;;;;2.30;1.60;;;13.50;99.90;;;;;;5083094;28;20397;-90
2021/06/16 08:21:17;;;;;;;3.47;2.00;;;13.50;99.90;;;;;;5076752;28;20390;-90
2021/06/16 08:23:45;;;;;;;3.15;1.85;;;13.50;99.90;;;;;;5083283;28;20404;-93
2021/06/16 08:26:13;;;;;;;3.22;1.85;;;13.50;99.90;;;;;;5089703;28;20368;-89
2021/06/16 08:28:40;;;;;;;4.13;2.30;;;13.60;99.90;;;;;;5077469;28;21168;-91
2021/06/16 08:31:08;;;;;;;3.13;1.90;;;13.60;99.90;;;;;;5088029;28;20421;-88
2021/06/16 08:33:37;;;;;;;4.03;1.50;;;13.60;99.90;;;;;;5084285;28;20471;-88
2021/06/16 08:36:05;;;;;;;3.50;1.48;;;13.60;99.90;;;;;;5104460;28;20370;-88
2021/06/16 08:38:32;;;;;;;2.63;1.58;;;13.60;99.90;;;;;;5091799;28;20882;-88
2021/06/16 08:41:28;;;;;;;4.20;1.60;;;13.60;99.90;;;;;;5084749;28;21021;-85
2021/06/16 08:43:55;;;;;;;3.95;1.33;;;13.60;99.90;;;;;;5076359;28;20818;-88
2021/06/16 08:46:23;;;;;;;3.40;1.85;;;13.70;99.90;;;;;;5090543;28;20395;-89
2021/06/16 08:48:50;;;;;;;4.05;1.63;;;13.70;99.90;;;;;;5089702;28;20695;-90
2021/06/16 08:51:18;;;;;;;3.92;1.70;;;13.70;99.90;;;;;;5077132;28;20393;-91
2021/06/16 08:53:48;;;;;;;4.82;2.55;;;13.70;99.90;;;;;;5080110;28;20396;-90
2021/06/16 08:56:15;;;;;;;5.10;2.83;;;13.70;99.90;;;;;;5088628;28;20421;-93
2021/06/16 08:58:43;;;;;;;4.85;2.30;;;13.60;99.90;;;;;;5084176;28;20393;-91
2021/06/16 09:01:12;;;;;;;2.45;1.73;;;13.60;99.90;;;;;;5078165;28;20400;-89
2021/06/16 09:03:40;;;;;;;2.88;1.67;;;13.50;99.90;;;;;;5092128;28;20794;-92
2021/06/16 09:06:10;;;;;;;4.75;1.70;;;13.50;99.90;;;;;;5091810;28;20867;-87
2021/06/16 09:09:08;;;;;;;4.32;1.75;;;13.50;99.90;;;;;;5079205;28;20394;-89
2021/06/16 09:11:43;;;;;;;4.35;1.98;;;13.40;99.90;;;;;;5065756;28;20400;-90
2021/06/16 09:14:21;;;;;;;3.30;2.00;;;13.40;99.90;;;;;;5085401;28;20401;-88
2021/06/16 09:16:49;;;;;;;5.65;2.25;;;13.40;99.90;;;;;;5073085;28;20362;-89
2021/06/16 09:19:26;;;;;;;2.93;2.00;;;13.40;99.90;;;;;;5082821;28;20869;-90
2021/06/16 09:22:03;;;;;;;3.28;2.58;;;13.40;99.90;;;;;;5087062;28;20871;-91
2021/06/16 09:24:48;;;;;;;4.50;2.78;;;13.40;99.90;;;;;;5083380;28;20404;-94
2021/06/16 09:27:50;;;;;;;5.45;3.22;;;13.30;99.90;;;;;;5080063;28;20379;-91
2021/06/16 09:30:22;;;;;;;3.90;3.07;;;13.20;99.90;;;;;;5089542;28;20384;-89
2021/06/16 09:32:56;;;;;;;4.22;2.65;;;13.20;99.90;;;;;;5081213;28;20393;-91
2021/06/16 09:35:36;;;;;;;3.55;2.15;;;13.20;99.90;;;;;;5088373;28;20399;-90
2021/06/16 09:38:09;;;;;;;5.00;2.58;;;13.20;99.90;;;;;;5080103;28;20402;-90
2021/06/16 09:40:45;;;;;;;2.87;2.40;;;13.20;99.90;;;;;;5085068;28;20548;-91
2021/06/16 09:43:14;;;;;;;3.58;2.40;;;13.10;99.90;;;;;;5071012;28;20424;-94
2021/06/16 09:45:44;;;;;;;2.33;2.03;;;13.10;99.90;;;;;;5090309;28;20387;-90
2021/06/16 09:48:42;;;;;;;3.90;1.83;;;13.20;99.90;;;;;;5078045;28;20459;-88
2021/06/16 09:51:10;;;;;;;3.58;1.85;;;13.20;99.90;;;;;;5076430;28;20445;-88
2021/06/16 09:54:18;;;;;;;4.82;1.27;;;13.20;99.90;;;;;;5071156;28;20804;-88
2021/06/16 09:56:59;;;;;;;2.33;1.60;;;13.20;99.90;;;;;;5038566;28;20397;-87
2021/06/16 09:59:44;;;;;;;2.88;1.65;;;13.20;99.90;;;;;;5068084;28;20362;-88
2021/06/16 10:02:22;;;;;;;2.13;1.50;;;13.20;99.90;;;;;;5087579;28;20388;-92
2021/06/16 10:05:01;;;;;;;2.80;1.60;;;13.20;99.90;;;;;;5087592;28;20760;-89
2021/06/16 10:07:33;;;;;;;1.30;1.10;;;13.00;99.90;;;;;;5102648;27;20386;-87
2021/06/16 10:10:11;;;;;;;3.60;1.60;;;12.90;99.90;;;;;;5108098;28;20369;-89
2021/06/16 10:12:40;;;;;;;3.05;1.70;;;12.80;99.90;;;;;;5108126;28;20719;-89
2021/06/16 10:15:09;;;;;;;2.05;1.95;;;12.70;99.90;;;;;;5094794;28;20452;-89
2021/06/16 10:17:38;;;;;;;3.22;2.72;;;12.70;99.90;;;;;;5087652;28;20403;-89
2021/06/16 10:20:07;;;;;;;3.58;2.30;;;12.60;99.90;;;;;;5087900;28;20372;-91
2021/06/16 10:22:34;;;;;;;4.78;2.72;;;12.50;99.90;;;;;;5088098;28;20384;-91
2021/06/16 10:25:03;;;;;;;5.83;2.90;;;12.50;99.90;;;;;;5088211;28;20471;-89
2021/06/16 10:28:08;;;;;;;3.50;1.90;;;12.50;99.90;;;;;;5087288;28;20383;-89
2021/06/16 10:30:43;;;;;;;3.72;2.58;;;12.50;99.90;;;;;;5073191;28;20403;-89
2021/06/16 10:33:30;;;;;;;3.42;1.98;;;12.50;99.90;;;;;;5084100;28;20843;-91
2021/06/16 10:36:16;;;;;;;3.35;2.50;;;12.50;99.90;;;;;;5083417;28;20387;-91
2021/06/16 10:38:59;;;;;;;5.32;2.17;;;12.60;99.90;;;;;;5084200;28;20382;-89
2021/06/16 10:41:39;;;;;;;4.03;1.75;;;12.60;99.90;;;;;;5096160;28;20400;-88
2021/06/16 10:44:14;;;;;;;3.90;3.47;;;12.60;99.90;;;;;;5098211;28;20414;-89
2021/06/16 10:46:53;;;;;;;2.67;2.28;;;12.60;99.90;;;;;;5081603;28;20378;-88
2021/06/16 10:49:50;;;;;;;4.28;2.28;;;12.60;99.90;;;;;;5072328;28;20374;-87
2021/06/16 10:52:22;;;;;;;2.90;1.88;;;12.60;99.90;;;;;;5085037;28;20937;-88
2021/06/16 10:55:05;;;;;;;1.92;1.77;;;12.60;99.90;;;;;;5087354;28;20372;-87
2021/06/16 10:57:33;;;;;;;2.55;1.60;;;12.70;99.90;;;;;;5081478;28;20400;-87
2021/06/16 11:00:05;;;;;;;4.13;1.63;;;12.70;99.90;;;;;;5066904;28;20402;-87
2021/06/16 11:02:33;;;;;;;3.78;1.35;;;12.70;99.90;;;;;;5084305;28;20384;-85
2021/06/16 11:05:20;;;;;;;4.00;1.63;;;12.70;99.90;;;;;;5086351;28;20380;-85
2021/06/16 11:07:47;;;;;;;2.88;1.92;;;12.80;99.90;;;;;;5083537;28;20383;-87
2021/06/16 11:10:14;;;;;;;5.65;2.15;;;12.80;99.90;;;;;;5086249;28;20400;-86
2021/06/16 11:12:54;;;;;;;3.35;2.33;;;12.90;99.90;;;;;;5085312;28;20488;-89
2021/06/16 11:15:24;;;;;;;4.10;2.60;;;12.90;99.90;;;;;;5070453;28;20918;-88
2021/06/16 11:17:55;;;;;;;5.53;3.67;;;12.80;99.90;;;;;;5077372;28;20379;-88
2021/06/16 11:20:29;;;;;;;13.43;9.40;;;12.80;99.90;;;;;;5093854;28;20387;-89
2021/06/16 11:23:01;;;;;;;6.93;3.00;;;12.70;99.90;;;;;;5080236;28;20396;-91
2021/06/16 11:25:38;;;;;;;3.20;2.60;;;12.50;99.90;;;;;;5075992;28;20396;-87
2021/06/16 11:28:16;;;;;;;4.73;1.80;;;12.40;99.90;;;;;;5075054;28;20459;-85
2021/06/16 11:30:55;;;;;;;2.78;1.48;;;12.40;99.90;;;;;;5088640;28;20384;-87
2021/06/16 11:33:22;;;;;;;2.28;1.40;;;12.50;99.90;;;;;;5089611;28;20377;-91
2021/06/16 11:35:52;;;;;;;4.53;1.47;;;12.70;99.90;;;;;;5090693;28;20808;-91
2021/06/16 11:38:19;;;;;;;1.80;1.40;;;12.80;99.90;;;;;;5086555;28;20383;-91
2021/06/16 11:41:00;;;;;;;2.42;1.20;;;12.90;99.90;;;;;;5086926;28;20744;-92
2021/06/16 11:43:38;;;;;;;2.30;1.45;;;13.00;99.90;;;;;;5089121;28;20449;-94
2021/06/16 11:46:35;;;;;;;2.88;1.30;;;13.00;99.90;;;;;;5089060;28;20384;-90
2021/06/16 11:49:05;;;;;;;2.22;1.50;;;13.20;99.90;;;;;;5084582;28;20378;-88
2021/06/16 11:51:35;;;;;;;3.20;1.60;;;13.20;99.90;;;;;;5079503;28;20396;-89
2021/06/16 11:54:22;;;;;;;3.10;1.40;;;13.20;99.90;;;;;;5089162;28;20384;-88
2021/06/16 11:56:55;;;;;;;3.38;1.52;;;13.20;99.90;;;;;;5087216;28;20391;-90
2021/06/16 11:59:43;;;;;;;4.15;1.63;;;13.20;99.90;;;;;;5086695;28;20455;-93
2021/06/16 12:02:25;;;;;;;5.13;2.00;;;13.30;99.90;;;;;;5088989;28;20403;-90
2021/06/16 12:05:07;;;;;;;3.28;1.73;;;13.20;99.90;;;;;;5087683;28;20407;-89
2021/06/16 12:07:45;;;;;;;5.10;1.58;;;13.20;99.90;;;;;;5088155;28;20388;-86
2021/06/16 12:10:34;;;;;;;3.40;2.20;;;13.00;99.90;;;;;;5088260;28;21123;-90
2021/06/16 12:13:05;;;;;;;5.43;2.05;;;12.90;99.90;;;;;;5087369;28;20380;-90
2021/06/16 12:15:38;;;;;;;4.30;1.70;;;12.90;99.90;;;;;;5089731;28;20461;-89
2021/06/16 12:18:05;;;;;;;3.58;1.77;;;12.90;99.90;;;;;;5088828;28;20430;-91
2021/06/16 12:20:40;;;;;;;5.37;2.40;;;12.80;99.90;;;;;;5088984;28;20542;-91
2021/06/16 12:23:19;;;;;;;5.40;2.33;;;12.80;99.90;;;;;;5088494;28;20392;-92
2021/06/16 12:25:46;;;;;;;6.75;4.45;;;12.70;99.90;;;;;;5089925;28;20384;-91
2021/06/16 12:28:15;;;;;;;9.57;4.85;;;12.60;99.90;;;;;;5089460;28;20360;-91
2021/06/16 12:30:43;;;;;;;11.98;4.90;;;12.50;99.90;;;;;;5088566;28;20390;-91
2021/06/16 12:33:19;;;;;;;10.23;4.80;;;12.40;99.90;;;;;;5088657;28;20475;-89
2021/06/16 12:35:56;;;;;;;8.57;5.53;;;12.40;99.90;;;;;;5088299;28;20388;-91
2021/06/16 12:38:47;;;;;;;13.80;6.20;;;12.30;99.90;;;;;;5088863;28;20886;-91
2021/06/16 12:41:35;;;;;;;9.45;5.80;;;12.20;99.90;;;;;;5068976;28;20452;-89
2021/06/16 12:44:14;;;;;;;9.32;6.28;;;12.10;99.90;;;;;;5070154;28;20412;-91
2021/06/16 12:47:13;;;;;;;10.55;6.10;;;12.10;99.90;;;;;;5089361;28;20388;-92
2021/06/16 12:49:43;;;;;;;11.68;6.28;;;12.10;99.90;;;;;;5086725;28;20376;-93
2021/06/16 12:52:12;;;;;;;11.50;6.50;;;12.00;99.90;;;;;;5088808;28;20728;-88
2021/06/16 12:54:44;;;;;;;10.50;6.30;;;11.90;99.90;;;;;;5089456;28;20449;-90
2021/06/16 12:57:19;;;;;;;12.25;5.78;;;11.90;99.90;;;;;;5091662;28;20859;-93
2021/06/16 12:59:54;;;;;;;25.02;14.52;;;11.90;99.90;;;;;;5093458;28;20784;-92
2021/06/16 13:02:32;;;;;;;15.33;8.20;;;11.90;99.90;;;;;;5090888;28;20422;-91
2021/06/16 13:05:04;;;;;;;18.52;8.68;;;11.90;99.90;;;;;;5083690;28;20502;-88
2021/06/16 13:07:49;;;;;;;23.00;13.10;;;11.80;99.90;;;;;;5088766;28;20375;-90